Aérodrome d'Ussel-Thalamy

LFCU · Corrèze, Aquitaine-Limousin-Poitou-Charentes, France

METAR anciennes LFCU · Aérodrome d'Ussel-Thalamy

Tu vois ci-dessous les METAR des derniers jours. Sélectionne une année pour parcourir les METAR plus anciens, à partir de l'année 2007.

16 avril 2024

Temps Code Temps Temp. Vue Base cloud Vent METAR/SPECI
21:00
V
9 °C 10 km+ - 280° 280° 8 kt METAR LFLC 161900Z AUTO 28008KT CAVOK 09/01 Q1015 TEMPO 4000 SHRA BKN035TCU
20:30
V
10 °C 10 km+ - 280° 280° 10 kt METAR LFLC 161830Z AUTO 28010KT 250V310 CAVOK 10/00 Q1015 TEMPO 4000 SHRA BKN035TCU
20:00
V
11 °C 10 km+ - 290° 290° 9 kt METAR LFLC 161800Z AUTO 29009KT CAVOK 11/00 Q1015 NOSIG
19:30
V
11 °C 10 km+ - 310° 310° 10 kt METAR LFLC 161730Z AUTO 31010KT 270V360 CAVOK 11/M00 Q1015 NOSIG
19:00
V
12 °C 10 km+ - 310° 310° 11 kt METAR LFLC 161700Z AUTO 31011KT 280V340 9999 FEW066 12/00 Q1015 TEMPO 32020G30KT 4000 SHRA BKN035TCU
18:30
V
12 °C 10 km+ 7.400 ft 300° 300° 10 kt METAR LFLC 161630Z AUTO 30010KT 270V340 9999 FEW064 BKN074 12/00 Q1015 TEMPO 32020G30KT 4000 SHRA BKN035TCU
18:00
V
12 °C 10 km+ 7.200 ft 320° 320° 12 kt METAR LFLC 161600Z AUTO 32012KT 290V350 9999 SCT056 BKN072 12/01 Q1015 TEMPO 32020G30KT 4000 SHRA BKN035TCU
17:30
V
13 °C 10 km+ 7.000 ft 300° 300° 15 kt METAR LFLC 161530Z AUTO 30015KT 270V340 9999 SCT060 BKN070 13/01 Q1015 TEMPO 32020G30KT 4000 SHRA BKN035TCU
17:00
V
13 °C 10 km+ 6.200 ft 310° 310° 10 kt METAR LFLC 161500Z AUTO 31010KT 280V340 9999 BKN062 BKN072 13/01 Q1015 TEMPO 32020G30KT 4000 SHRA BKN035TCU
16:30
V
14 °C 10 km+ 5.600 ft 300° 300° 12 kt METAR LFLC 161430Z AUTO 30012KT 9999 BKN056 BKN066 14/02 Q1015 TEMPO 32020G30KT 4000 SHRA BKN035TCU
16:00
V
13 °C 10 km+ 5.800 ft 290° 290° 9 kt METAR LFLC 161400Z AUTO 29009KT 230V350 9999 BKN058 BKN068 13/02 Q1015 TEMPO 32020G30KT 4000 SHRA BKN035TCU
15:30
V
12 °C 10 km+ 5.800 ft 310° 310° 11 kt METAR LFLC 161330Z AUTO 31011KT 280V340 9999 BKN058 BKN068 12/00 Q1016 TEMPO 32020G30KT 4000 SHRA BKN035TCU
15:00
V
11 °C 10 km+ 5.000 ft 290° 290° 10 kt METAR LFLC 161300Z AUTO 29010KT 260V350 9999 BKN050 OVC064 11/00 Q1016 TEMPO 32020G30KT
14:30
V
11 °C 10 km+ 5.400 ft 300° 300° 8 kt METAR LFLC 161230Z AUTO 30008KT 260V330 9999 BKN054 BKN064 11/01 Q1017 TEMPO 32020G30KT
14:00
V
12 °C 10 km+ 5.600 ft 320° 320° 9 kt METAR LFLC 161200Z AUTO 32009KT 270V360 9999 BKN056 BKN180 12/02 Q1017 TEMPO 32020G30KT
13:30
V
11 °C 10 km+ 5.000 ft 310° 310° 11 kt METAR LFLC 161130Z AUTO 31011KT 270V350 9999 BKN050 BKN180 11/01 Q1017 TEMPO 32020G30KT
13:00
V
11 °C 10 km+ 4.900 ft 300° 300° 10 kt METAR LFLC 161100Z AUTO 30010KT 270V350 9999 BKN049 BKN060 11/01 Q1017 NOSIG
12:30
V
11 °C 10 km+ 4.400 ft 300° 300° 11 kt METAR LFLC 161030Z AUTO 30011KT 270V330 9999 BKN044 BKN050 11/01 Q1017 NOSIG
12:00
V
10 °C 10 km+ 4.300 ft 290° 290° 9 kt METAR LFLC 161000Z AUTO 29009KT 220V340 9999 BKN043 BKN050 10/01 Q1018 NOSIG
11:30
V
9 °C 10 km+ 4.900 ft 290° 290° 11 kt METAR LFLC 160930Z AUTO 29011KT 250V320 9999 SCT041 BKN049 09/01 Q1018 NOSIG
11:00
V
9 °C 10 km+ 4.700 ft 310° 310° 8 kt METAR LFLC 160900Z AUTO 31008KT 280V360 9999 SCT037 BKN047 09/01 Q1018 NOSIG
10:30
V
8 °C 10 km+ 3.700 ft 310° 310° 9 kt METAR LFLC 160830Z AUTO 31009KT 270V360 9999 BKN037 BKN046 08/02 Q1018 NOSIG
10:00
V
8 °C 10 km+ 4.300 ft 310° 310° 8 kt METAR LFLC 160800Z AUTO 31008KT 280V350 9999 FEW034 BKN043 BKN058 08/02 Q1018 NOSIG
09:30
V
8 °C 10 km+ 4.100 ft 310° 310° 8 kt METAR LFLC 160730Z AUTO 31008KT 270V340 9999 SCT030 BKN041 BKN049 08/02 Q1018 NOSIG
09:00
V
8 °C 10 km+ 3.100 ft 340° 340° 6 kt METAR LFLC 160700Z AUTO 34006KT 300V020 9999 BKN031 BKN054 08/02 Q1018 NOSIG
08:30
V
7 °C 10 km+ 5.800 ft 350° 350° 6 kt METAR LFLC 160630Z AUTO 35006KT 9999 FEW032 BKN058 07/04 Q1018 NOSIG
08:00
V
7 °C 10 km+ 3.500 ft 350° 350° 4 kt METAR LFLC 160600Z AUTO 35004KT 320V020 9999 FEW029 BKN035 BKN064 07/03 Q1018 NOSIG
07:30
V
7 °C 10 km+ 3.700 ft 340° 340° 3 kt METAR LFLC 160530Z AUTO 34003KT 320V020 9999 SCT027 BKN037 BKN062 07/03 Q1018 NOSIG
07:00
V
7 °C 10 km+ 5.400 ft Var Var 3 kt METAR LFLC 160500Z AUTO VRB03KT 9999 FEW038 BKN054 OVC066 07/03 Q1017 NOSIG
06:30
V
6 °C 10 km+ 4.900 ft 310° 310° 6 kt METAR LFLC 160430Z AUTO 31006KT 280V340 9999 -RA SCT043 BKN049 OVC056 06/03 Q1017 NOSIG
06:00
V
7 °C 10 km+ 4.200 ft 320° 320° 10 kt METAR LFLC 160400Z AUTO 32010KT 290V350 9999 FEW028 BKN042 BKN066 07/03 Q1017 TEMPO 4500 RA
05:30
V
7 °C 10 km+ 6.400 ft 360° 360° 7 kt METAR LFLC 160330Z AUTO 36007KT 9999 -DZ FEW025 SCT052 BKN064 07/04 Q1017 TEMPO 4500 RA
05:00
V
7 °C 10 km+ 4.700 ft 360° 360° 9 kt METAR LFLC 160300Z AUTO 36009KT 9999 SCT025 SCT035 BKN047 07/05 Q1017 TEMPO 4500 RA
04:30
M
7 °C 10 km+ 2.900 ft 010° 010° 10 kt METAR LFLC 160230Z AUTO 01010KT 340V040 9999 -RA SCT021 BKN029 BKN034 07/05 Q1017 TEMPO 4500 RA
04:00
V
8 °C 10 km+ 3.700 ft 360° 360° 10 kt METAR LFLC 160200Z AUTO 36010KT 9999 -RA FEW014/// BKN037/// BKN045/// //////TCU 08/05 Q1017 TEMPO 4500 RA BKN025
03:30
V
9 °C 10 km+ 3.200 ft 300° 300° 8 kt METAR LFLC 160130Z AUTO 30008KT 9999 -RA FEW026/// BKN032/// BKN045/// //////CB 09/07 Q1017 TEMPO 4500 RA BKN025
03:00
V
10 °C 10 km+ 3.400 ft 270° 270° 6 kt METAR LFLC 160100Z AUTO 27006KT 240V310 9999 -RA BKN034/// OVC042/// //////TCU 10/06 Q1017 TEMPO 4500 RA BKN025
02:30
V
10 °C 10 km+ 3.700 ft 270° 270° 7 kt METAR LFLC 160030Z AUTO 27007KT 230V310 9999 -RA BKN037/// BKN044/// BKN060/// ///TCU 10/06 Q1017 TEMPO 4500 RA BKN025
02:00
V
11 °C 10 km+ 5.800 ft 260° 260° 10 kt METAR LFLC 160000Z AUTO 26010KT 210V340 9999 SCT041/// BKN058/// OVC074/// ///TCU 11/04 Q1018 TEMPO 4500 RA BKN025
01:30
V
11 °C 10 km+ 6.200 ft 250° 250° 9 kt METAR LFLC 152330Z AUTO 25009KT 210V280 9999 BKN062 BKN072 11/04 Q1018 TEMPO 4500 RA
01:00
V
11 °C 10 km+ 5.800 ft 240° 240° 9 kt METAR LFLC 152300Z AUTO 24009KT 190V280 9999 FEW009 OVC058 11/06 Q1018 TEMPO 4500 RA
00:30
V
11 °C 10 km+ 3.400 ft 260° 260° 8 kt METAR LFLC 152230Z AUTO 26008KT 230V320 9999 -RA FEW027 BKN034 BKN040 11/06 Q1018 TEMPO 4500 RA
00:00
V
12 °C 10 km+ 3.900 ft 300° 300° 10 kt METAR LFLC 152200Z AUTO 30010KT 260V330 9999 FEW028 BKN039 OVC047 12/05 Q1018 NOSIG

15 avril 2024

Temps Code Temps Temp. Vue Base cloud Vent METAR/SPECI
23:30
V
12 °C 10 km+ 4.300 ft 250° 250° 8 kt METAR LFLC 152130Z AUTO 25008KT 200V290 9999 FEW035 BKN043 OVC050 12/04 Q1018 NOSIG
23:00
V
13 °C 10 km+ 4.400 ft 300° 300° 8 kt METAR LFLC 152100Z AUTO 30008KT 240V340 9999 OVC044 13/04 Q1018 NOSIG
22:30
V
13 °C 10 km+ 4.900 ft 280° 280° 6 kt METAR LFLC 152030Z AUTO 28006KT 220V360 9999 BKN049 BKN056 13/03 Q1018 NOSIG
22:00
V
13 °C 10 km+ 5.000 ft 270° 270° 14 - 26 kt METAR LFLC 152000Z AUTO 27014G26KT 240V310 9999 BKN050 BKN240 13/03 Q1018 NOSIG
21:30
V
13 °C 10 km+ 5.200 ft 280° 280° 14 kt METAR LFLC 151930Z AUTO 28014KT 9999 BKN052 13/04 Q1018 NOSIG
21:00
V
14 °C 10 km+ 5.200 ft 260° 260° 12 kt METAR LFLC 151900Z AUTO 26012KT 230V300 9999 BKN052 BKN062 14/04 Q1017 NOSIG
20:30
V
15 °C 10 km+ 5.600 ft 260° 260° 14 kt METAR LFLC 151830Z AUTO 26014KT 240V310 9999 BKN056 15/04 Q1017 NOSIG
20:00
V
16 °C 10 km+ - 250° 250° 18 kt METAR LFLC 151800Z AUTO 25018KT 9999 SCT062 SCT072 16/04 Q1017 NOSIG
19:30
V
16 °C 10 km+ - 260° 260° 14 kt METAR LFLC 151730Z AUTO 26014KT 230V310 9999 SCT066 16/03 Q1017 NOSIG
19:00
V
17 °C 10 km+ - 270° 270° 10 kt METAR LFLC 151700Z AUTO 27010KT 240V320 CAVOK 17/03 Q1016 TEMPO 27017G30KT
18:30
V
18 °C 10 km+ - 260° 260° 14 kt METAR LFLC 151630Z AUTO 26014KT 230V310 CAVOK 18/03 Q1016 TEMPO 27017G30KT
18:00
V
19 °C 10 km+ - 270° 270° 14 kt METAR LFLC 151600Z AUTO 27014KT 240V300 CAVOK 19/03 Q1016 TEMPO 27017G30KT
17:30
V
20 °C 10 km+ - 260° 260° 15 kt METAR LFLC 151530Z AUTO 26015KT 240V300 CAVOK 20/04 Q1016 TEMPO 27017G30KT
17:00
V
20 °C 10 km+ - 250° 250° 19 kt METAR LFLC 151500Z AUTO 25019KT 220V280 CAVOK 20/04 Q1016 TEMPO 27017G30KT
16:30
V
20 °C 10 km+ - 240° 240° 15 kt METAR LFLC 151430Z AUTO 24015KT 200V270 9999 SCT064 20/07 Q1016 TEMPO 27017G30KT
16:00
V
20 °C 10 km+ 6.400 ft 240° 240° 14 - 25 kt METAR LFLC 151400Z AUTO 24014G25KT 200V290 9999 BKN064 20/06 Q1017 NOSIG
15:30
V
20 °C 10 km+ 6.400 ft 250° 250° 16 kt METAR LFLC 151330Z AUTO 25016KT 9999 BKN064 20/07 Q1017 TEMPO 27017G30KT
15:00
V
20 °C 10 km+ - 260° 260° 13 kt METAR LFLC 151300Z AUTO 26013KT 9999 FEW058 20/07 Q1017 TEMPO 27017G30KT
14:30
V
20 °C 10 km+ 5.800 ft 240° 240° 17 kt METAR LFLC 151230Z AUTO 24017KT 9999 BKN058 BKN068 20/07 Q1017 TEMPO 27017G30KT
14:00
V
21 °C 10 km+ 5.600 ft 280° 280° 16 kt METAR LFLC 151200Z AUTO 28016KT 220V310 9999 BKN056 BKN068 21/09 Q1018 TEMPO 27015G30KT
13:30
V
20 °C 10 km+ 5.200 ft 290° 290° 13 kt METAR LFLC 151130Z AUTO 29013KT 260V330 9999 BKN052 BKN068 20/09 Q1018 TEMPO 27015G30KT
13:00
V
19 °C 10 km+ 5.000 ft 280° 280° 10 kt METAR LFLC 151100Z AUTO 28010KT 230V310 9999 BKN050 BKN062 19/10 Q1018 TEMPO 27015G30KT
12:30
V
19 °C 10 km+ 5.200 ft 290° 290° 12 kt METAR LFLC 151030Z AUTO 29012KT 9999 BKN052 BKN062 19/09 Q1018 TEMPO 27015G30KT
12:00
V
20 °C 10 km+ 6.200 ft 260° 260° 11 kt METAR LFLC 151000Z AUTO 26011KT 230V290 9999 SCT046 SCT052 BKN062 20/09 Q1018 TEMPO SCT018TCU BKN020
11:30
V
19 °C 10 km+ 4.700 ft 260° 260° 8 kt METAR LFLC 150930Z AUTO 26008KT 230V350 9999 BKN047 BKN054 OVC066 19/10 Q1018 TEMPO SCT018TCU BKN020
11:00
V
20 °C 10 km+ 4.800 ft 290° 290° 5 kt METAR LFLC 150900Z AUTO 29005KT 220V020 9999 FEW042 BKN048 BKN056 20/10 Q1018 TEMPO SCT018TCU BKN020
10:30
V
19 °C 10 km+ - Var Var 3 kt METAR LFLC 150830Z AUTO VRB03KT CAVOK 19/10 Q1018 TEMPO SCT018TCU BKN020
10:00
V
18 °C 10 km+ - 130° 130° 4 kt METAR LFLC 150800Z AUTO 13004KT 100V170 9999 FEW060 18/12 Q1018 TEMPO 32010KT SCT018TCU BKN020
09:30
V
15 °C 10 km+ - Var Var 3 kt METAR LFLC 150730Z AUTO VRB03KT 9999 FEW030 15/12 Q1019 TEMPO SCT018TCU BKN020
09:00
V
14 °C 10 km+ - Var Var 2 kt METAR LFLC 150700Z AUTO VRB02KT 9999 FEW038 14/11 Q1019 TEMPO SCT018TCU BKN020
08:30
V
14 °C 10 km+ - 030° 030° 5 kt METAR LFLC 150630Z AUTO 03005KT 350V100 CAVOK 14/11 Q1018 TEMPO SCT018TCU BKN020
08:00
V
13 °C 10 km+ - Var Var 3 kt METAR LFLC 150600Z AUTO VRB03KT CAVOK 13/11 Q1018 TEMPO SCT018TCU BKN020
07:30
V
12 °C 10 km+ - Var Var 3 kt METAR LFLC 150530Z AUTO VRB03KT CAVOK 12/11 Q1017 TEMPO SCT018TCU BKN020
07:00
V
11 °C 10 km+ - 170° 170° 5 kt METAR LFLC 150500Z AUTO 17005KT CAVOK 11/10 Q1017 TEMPO 32010KT SCT018TCU BKN020
06:30
V
13 °C 10 km+ 21.000 ft 350° 350° 5 kt METAR LFLC 150430Z AUTO 35005KT 9999 FEW056 BKN210 13/11 Q1017 TEMPO 27010KT SCT018TCU BKN020
06:00
L
13 °C 1,2 km 6.400 ft Var Var 2 kt METAR LFLC 150400Z AUTO VRB02KT 9999 1200 R26/P2400 R08/P2400 BKN064 BKN240 13/11 Q1017 NOSIG
05:30
V
13 °C 10 km+ - 360° 360° 3 kt METAR LFLC 150330Z AUTO 36003KT 330V060 CAVOK 13/11 Q1017 BECMG 27010KT
05:00
V
14 °C 10 km+ - 080° 080° 3 kt METAR LFLC 150300Z AUTO 08003KT CAVOK 14/11 Q1017 BECMG 27010KT
04:30
V
14 °C 10 km+ - 220° 220° 3 kt METAR LFLC 150230Z AUTO 22003KT CAVOK 14/11 Q1018 NOSIG
04:00
V
14 °C 10 km+ 24.000 ft 360° 360° 0 kt METAR LFLC 150200Z AUTO 00000KT 9999 SCT064 OVC240 14/11 Q1018 BECMG 27010KT
03:30
V
14 °C 10 km+ 6.400 ft 140° 140° 2 kt METAR LFLC 150130Z AUTO 14002KT 9999 BKN064 BKN240 14/11 Q1018 BECMG 27010KT
03:00
V
15 °C 10 km+ 6.400 ft 360° 360° 4 kt METAR LFLC 150100Z AUTO 36004KT 9999 OVC064 15/12 Q1018 BECMG 27010KT
02:30
V
15 °C 10 km+ - Var Var 1 kt METAR LFLC 150030Z AUTO VRB01KT 9999 SCT064 15/11 Q1018 NOSIG
02:00
V
14 °C 10 km+ - 360° 360° 2 kt METAR LFLC 150000Z AUTO 36002KT CAVOK 14/11 Q1018 BECMG 27010KT
01:30
V
14 °C 10 km+ - Var Var 2 kt METAR LFLC 142330Z AUTO VRB02KT CAVOK 14/11 Q1019 NOSIG
01:00
V
14 °C 10 km+ - Var Var 2 kt METAR LFLC 142300Z AUTO VRB02KT CAVOK 14/11 Q1019 NOSIG
00:30
V
15 °C 10 km+ - Var Var 2 kt METAR LFLC 142230Z AUTO VRB02KT CAVOK 15/11 Q1019 NOSIG
00:00
V
16 °C 10 km+ - Var Var 1 kt METAR LFLC 142200Z AUTO VRB01KT CAVOK 16/11 Q1019 NOSIG

14 avril 2024

Temps Code Temps Temp. Vue Base cloud Vent METAR/SPECI
23:30
V
16 °C 10 km+ - Var Var 2 kt METAR LFLC 142130Z AUTO VRB02KT CAVOK 16/11 Q1019 NOSIG
23:00
V
16 °C 10 km+ - 240° 240° 3 kt METAR LFLC 142100Z AUTO 24003KT CAVOK 16/11 Q1019 NOSIG
22:30
V
17 °C 10 km+ - Var Var 2 kt METAR LFLC 142030Z AUTO VRB02KT CAVOK 17/11 Q1019 NOSIG
22:00
V
17 °C 10 km+ - 280° 280° 2 kt METAR LFLC 142000Z AUTO 28002KT CAVOK 17/11 Q1019 NOSIG
21:30
V
18 °C 10 km+ - 260° 260° 1 kt METAR LFLC 141930Z AUTO 26001KT CAVOK 18/11 Q1019 NOSIG
21:00
V
21 °C 10 km+ - 100° 100° 1 kt METAR LFLC 141900Z AUTO 10001KT CAVOK 21/11 Q1019 NOSIG
20:30
V
22 °C 10 km+ - 360° 360° 3 kt METAR LFLC 141830Z AUTO 36003KT CAVOK 22/11 Q1019 NOSIG
20:00
V
24 °C 10 km+ - 010° 010° 4 kt METAR LFLC 141800Z AUTO 01004KT CAVOK 24/12 Q1019 NOSIG
19:30
V
24 °C 10 km+ - 010° 010° 7 kt METAR LFLC 141730Z AUTO 01007KT CAVOK 24/13 Q1019 NOSIG
19:00
V
25 °C 10 km+ - 020° 020° 8 kt METAR LFLC 141700Z AUTO 02008KT CAVOK 25/14 Q1019 NOSIG
18:30
V
26 °C 10 km+ - 020° 020° 8 kt METAR LFLC 141630Z AUTO 02008KT 350V050 CAVOK 26/14 Q1019 NOSIG
18:00
V
27 °C 10 km+ - 020° 020° 8 kt METAR LFLC 141600Z AUTO 02008KT CAVOK 27/14 Q1020 NOSIG
17:30
V
27 °C 10 km+ - 020° 020° 7 kt METAR LFLC 141530Z AUTO 02007KT 350V050 CAVOK 27/14 Q1020 NOSIG
17:00
L
27 °C 750 m - 010° 010° 6 kt METAR LFLC 141500Z AUTO 01006KT 9999 0750 R26/P2400 R08/P2400 // NSC 27/14 Q1020
16:30
V
28 °C 10 km+ - 020° 020° 6 kt METAR LFLC 141430Z AUTO 02006KT 340V080 CAVOK 28/15 Q1020 NOSIG
16:00
I
27 °C 2,8 km - 050° 050° 7 kt METAR LFLC 141400Z AUTO 05007KT 020V100 9999 2800 NSC 27/14 Q1021 NOSIG
15:30
V
27 °C 10 km+ - Var Var 3 kt METAR LFLC 141330Z AUTO VRB03KT CAVOK 27/12 Q1021 NOSIG
15:00
V
27 °C 10 km+ - 020° 020° 4 kt METAR LFLC 141300Z AUTO 02004KT 320V070 CAVOK 27/13 Q1022 NOSIG
14:30
V
27 °C 10 km+ - Var Var 4 kt METAR LFLC 141230Z AUTO VRB04KT CAVOK 27/13 Q1022 NOSIG
14:00
V
26 °C 10 km+ - 020° 020° 3 kt METAR LFLC 141200Z AUTO 02003KT 340V100 CAVOK 26/11 Q1023 NOSIG
13:30
V
26 °C 10 km+ - 060° 060° 4 kt METAR LFLC 141130Z AUTO 06004KT 010V110 CAVOK 26/12 Q1023 NOSIG
13:00
V
25 °C 10 km+ - Var Var 1 kt METAR LFLC 141100Z AUTO VRB01KT CAVOK 25/12 Q1024 NOSIG
12:30
V
24 °C 10 km+ - Var Var 2 kt METAR LFLC 141030Z AUTO VRB02KT CAVOK 24/12 Q1024 NOSIG
12:00
V
24 °C 10 km+ - Var Var 3 kt METAR LFLC 141000Z AUTO VRB03KT CAVOK 24/13 Q1024 NOSIG
11:30
V
22 °C 10 km+ - Var Var 2 kt METAR LFLC 140930Z AUTO VRB02KT 9999 FEW013 22/12 Q1024 NOSIG
11:00
V
21 °C 10 km+ - Var Var 3 kt METAR LFLC 140900Z AUTO VRB03KT CAVOK 21/12 Q1024 NOSIG
10:30
V
19 °C 10 km+ - 200° 200° 3 kt METAR LFLC 140830Z AUTO 20003KT 160V290 CAVOK 19/11 Q1025 NOSIG
10:00
V
18 °C 10 km+ - Var Var 3 kt METAR LFLC 140800Z AUTO VRB03KT CAVOK 18/11 Q1025 NOSIG
09:30
V
17 °C 10 km+ - Var Var 2 kt METAR LFLC 140730Z AUTO VRB02KT CAVOK 17/10 Q1025 NOSIG
09:00
V
15 °C 10 km+ - 360° 360° 3 kt METAR LFLC 140700Z AUTO 36003KT CAVOK 15/10 Q1025 NOSIG
08:30
V
14 °C 10 km+ - 360° 360° 3 kt METAR LFLC 140630Z AUTO 36003KT CAVOK 14/09 Q1025 NOSIG
08:00
V
12 °C 10 km+ - 360° 360° 3 kt METAR LFLC 140600Z AUTO 36003KT CAVOK 12/09 Q1025 NOSIG
Signaler les modifications